createdAt,value
2018-04-10T00:00:17.207Z,8.96
2018-04-10T00:01:17.282Z,8.99
2018-04-10T00:02:17.331Z,8.95
2018-04-10T00:03:17.209Z,8.96
2018-04-10T00:04:17.198Z,9
2018-04-10T00:05:17.248Z,8.94
2018-04-10T00:06:17.265Z,8.96
2018-04-10T00:07:17.255Z,8.91
2018-04-10T00:08:17.245Z,8.91
2018-04-10T00:09:17.236Z,8.87
2018-04-10T00:10:17.223Z,8.81
2018-04-10T00:11:17.228Z,8.93
2018-04-10T00:12:17.252Z,8.92
2018-04-10T00:13:17.238Z,8.86
2018-04-10T00:14:17.253Z,8.76
2018-04-10T00:15:17.241Z,8.93
2018-04-10T00:16:17.258Z,8.86
2018-04-10T00:17:17.339Z,8.94
2018-04-10T00:18:17.271Z,8.85
2018-04-10T00:19:17.272Z,8.86
2018-04-10T00:20:17.279Z,8.84
2018-04-10T00:21:17.262Z,8.88
2018-04-10T00:22:17.358Z,8.92
2018-04-10T00:23:17.267Z,8.92
2018-04-10T00:24:17.266Z,8.77
2018-04-10T00:25:17.293Z,8.84
2018-04-10T00:26:17.276Z,8.77
2018-04-10T00:27:17.312Z,8.66
2018-04-10T00:28:17.306Z,8.68
2018-04-10T00:29:17.296Z,8.72
2018-04-10T00:30:17.277Z,8.68
2018-04-10T00:31:17.319Z,8.66
2018-04-10T00:32:17.321Z,8.8
2018-04-10T00:33:17.299Z,8.72
2018-04-10T00:34:17.433Z,8.61
2018-04-10T00:35:17.295Z,8.6
2018-04-10T00:36:17.313Z,8.61
2018-04-10T00:37:17.361Z,8.8
2018-04-10T00:38:17.332Z,8.8
2018-04-10T00:39:17.321Z,8.62
2018-04-10T00:40:17.333Z,8.69
2018-04-10T00:41:17.368Z,8.65
2018-04-10T00:42:17.358Z,8.65
2018-04-10T00:43:17.335Z,8.88
2018-04-10T00:44:17.390Z,8.83
2018-04-10T00:45:17.341Z,8.81
2018-04-10T00:46:17.342Z,8.77
2018-04-10T00:47:17.376Z,8.84
2018-04-10T00:48:17.357Z,8.74
2018-04-10T00:49:17.344Z,8.66
2018-04-10T00:50:17.370Z,8.72
2018-04-10T00:51:17.354Z,8.74
2018-04-10T00:52:17.367Z,8.75
2018-04-10T00:53:17.363Z,8.64
2018-04-10T00:54:17.367Z,8.6
2018-04-10T00:55:17.359Z,8.72
2018-04-10T00:56:17.370Z,8.83
2018-04-10T00:57:17.397Z,8.76
2018-04-10T00:58:17.428Z,8.78
2018-04-10T00:59:17.394Z,8.76
2018-04-10T01:00:17.422Z,8.7
2018-04-10T01:01:17.388Z,8.77
2018-04-10T01:02:17.383Z,8.73
2018-04-10T01:03:17.391Z,8.7
2018-04-10T01:04:17.390Z,8.73
2018-04-10T01:05:17.392Z,8.73
2018-04-10T01:06:17.429Z,8.71
2018-04-10T01:07:17.414Z,8.61
2018-04-10T01:08:17.432Z,8.66
2018-04-10T01:09:17.404Z,8.61
2018-04-10T01:10:17.493Z,8.65
2018-04-10T01:11:17.419Z,8.78
2018-04-10T01:12:17.431Z,8.79
2018-04-10T01:13:17.410Z,8.81
2018-04-10T01:14:17.410Z,8.78
2018-04-10T01:15:17.436Z,8.76
2018-04-10T01:16:17.430Z,8.78
2018-04-10T01:17:17.459Z,8.75
2018-04-10T01:18:17.590Z,8.68
2018-04-10T01:19:17.456Z,8.7
2018-04-10T01:20:17.453Z,8.64
2018-04-10T01:21:17.502Z,8.67
2018-04-10T01:22:17.480Z,8.53
2018-04-10T01:23:17.465Z,8.52
2018-04-10T01:24:17.497Z,8.63
2018-04-10T01:25:17.491Z,8.57
2018-04-10T01:26:17.498Z,8.56
2018-04-10T01:27:17.525Z,8.56
2018-04-10T01:28:17.628Z,8.51
2018-04-10T01:29:17.478Z,8.45
2018-04-10T01:30:17.490Z,8.44
2018-04-10T01:31:17.499Z,8.44
2018-04-10T01:32:17.488Z,8.49
2018-04-10T01:33:17.499Z,8.49
2018-04-10T01:34:17.514Z,8.42
2018-04-10T01:35:17.496Z,8.45
2018-04-10T01:36:17.685Z,8.45
2018-04-10T01:37:17.518Z,8.4
2018-04-10T01:38:17.509Z,8.47
2018-04-10T01:39:17.524Z,8.41
2018-04-10T01:40:17.576Z,8.53
2018-04-10T01:41:17.500Z,8.45
2018-04-10T01:42:17.722Z,8.43
2018-04-10T01:43:17.568Z,8.46
2018-04-10T01:44:17.538Z,8.47
2018-04-10T01:45:17.780Z,8.46
2018-04-10T01:46:17.532Z,8.45
2018-04-10T01:47:17.746Z,8.48
2018-04-10T01:48:17.527Z,8.45
2018-04-10T01:49:17.590Z,8.69
2018-04-10T01:50:17.521Z,8.74
2018-04-10T01:51:17.542Z,8.73
2018-04-10T01:52:17.538Z,8.71
2018-04-10T01:53:17.543Z,8.74
2018-04-10T01:54:17.563Z,8.73
2018-04-10T01:55:17.603Z,8.72
2018-04-10T01:56:17.631Z,8.67
2018-04-10T01:57:17.667Z,8.61
2018-04-10T01:58:17.578Z,8.61
2018-04-10T01:59:17.578Z,8.51
2018-04-10T02:00:17.630Z,8.58
2018-04-10T02:01:17.575Z,8.56
2018-04-10T02:02:17.596Z,8.48
2018-04-10T02:03:17.587Z,8.54
2018-04-10T02:04:17.594Z,8.51
2018-04-10T02:05:17.589Z,8.57
2018-04-10T02:06:17.597Z,8.69
2018-04-10T02:07:17.587Z,8.71
2018-04-10T02:08:17.797Z,8.73
2018-04-10T02:09:17.614Z,8.76
2018-04-10T02:10:17.636Z,8.72
2018-04-10T02:11:17.613Z,8.64
2018-04-10T02:12:17.678Z,8.63
2018-04-10T02:13:17.605Z,8.7
2018-04-10T02:14:17.623Z,8.61
2018-04-10T02:15:17.642Z,8.65
2018-04-10T02:16:17.656Z,8.61
2018-04-10T02:17:17.638Z,8.68
2018-04-10T02:18:17.678Z,8.69
2018-04-10T02:19:17.684Z,8.74
2018-04-10T02:20:17.647Z,8.63
2018-04-10T02:21:17.640Z,8.61
2018-04-10T02:22:17.659Z,8.53
2018-04-10T02:23:17.666Z,8.53
2018-04-10T02:24:17.657Z,8.56
2018-04-10T02:25:17.654Z,8.53
2018-04-10T02:26:17.655Z,8.57
2018-04-10T02:27:17.697Z,8.56
2018-04-10T02:28:17.673Z,8.52
2018-04-10T02:29:17.681Z,8.57
2018-04-10T02:30:17.650Z,8.62
2018-04-10T02:31:17.668Z,8.62
2018-04-10T02:32:17.667Z,8.68
2018-04-10T02:33:17.686Z,8.77
2018-04-10T02:34:17.718Z,8.72
2018-04-10T02:35:17.702Z,8.61
2018-04-10T02:36:17.706Z,8.74
2018-04-10T02:37:17.673Z,8.73
2018-04-10T02:38:17.744Z,8.75
2018-04-10T02:39:17.861Z,8.67
2018-04-10T02:40:17.744Z,8.77
2018-04-10T02:41:17.731Z,8.7
2018-04-10T02:42:18.017Z,8.68
2018-04-10T02:43:17.709Z,8.67
2018-04-10T02:44:17.728Z,8.72
2018-04-10T02:45:17.750Z,8.73
2018-04-10T02:46:17.859Z,8.81
2018-04-10T02:47:17.832Z,8.76
2018-04-10T02:48:17.725Z,8.73
2018-04-10T02:49:17.704Z,8.62
2018-04-10T02:50:17.887Z,8.73
2018-04-10T02:51:17.738Z,8.65
2018-04-10T02:52:17.811Z,8.63
2018-04-10T02:53:17.748Z,8.67
2018-04-10T02:54:17.748Z,8.64
2018-04-10T02:55:17.750Z,8.55
2018-04-10T02:56:17.758Z,8.74
2018-04-10T02:57:17.769Z,8.65
2018-04-10T02:58:17.763Z,8.77
2018-04-10T02:59:17.783Z,8.75
2018-04-10T03:00:17.753Z,8.65
2018-04-10T03:01:17.765Z,8.69
2018-04-10T03:02:17.772Z,8.67
2018-04-10T03:03:17.777Z,8.66
2018-04-10T03:04:17.823Z,8.66
2018-04-10T03:05:17.750Z,8.61
2018-04-10T03:06:17.763Z,8.62
2018-04-10T03:07:17.790Z,8.54
2018-04-10T03:08:17.951Z,8.58
2018-04-10T03:09:17.834Z,8.64
2018-04-10T03:10:17.791Z,8.66
2018-04-10T03:11:17.796Z,8.72
2018-04-10T03:12:17.800Z,8.68
2018-04-10T03:13:17.850Z,8.73
2018-04-10T03:14:17.792Z,8.59
2018-04-10T03:15:17.815Z,8.74
2018-04-10T03:16:17.867Z,8.69
2018-04-10T03:17:17.811Z,8.62
2018-04-10T03:18:17.892Z,8.58
2018-04-10T03:19:17.821Z,8.52
2018-04-10T03:20:17.832Z,8.57
2018-04-10T03:21:17.816Z,8.69
2018-04-10T03:22:17.834Z,8.61
2018-04-10T03:23:17.835Z,8.67
2018-04-10T03:24:17.844Z,8.67
2018-04-10T03:25:17.839Z,8.58
2018-04-10T03:26:17.850Z,8.63
2018-04-10T03:27:17.849Z,8.72
2018-04-10T03:28:17.833Z,8.66
2018-04-10T03:29:17.843Z,8.68
2018-04-10T03:30:17.860Z,8.68
2018-04-10T03:31:17.850Z,8.72
2018-04-10T03:32:17.864Z,8.61
2018-04-10T03:33:17.853Z,8.59
2018-04-10T03:34:17.901Z,8.72
2018-04-10T03:35:17.897Z,8.74
2018-04-10T03:36:17.865Z,8.66
2018-04-10T03:37:17.874Z,8.72
2018-04-10T03:38:17.880Z,8.74
2018-04-10T03:39:17.901Z,8.76
2018-04-10T03:40:17.881Z,8.62
2018-04-10T03:41:17.871Z,8.75
2018-04-10T03:42:17.924Z,8.72
2018-04-10T03:43:18.006Z,8.68
2018-04-10T03:44:17.901Z,8.77
2018-04-10T03:45:17.906Z,8.79
2018-04-10T03:46:17.933Z,8.74
2018-04-10T03:47:17.987Z,8.76
2018-04-10T03:48:17.921Z,8.71
2018-04-10T03:49:17.937Z,8.77
2018-04-10T03:50:17.953Z,8.67
2018-04-10T03:51:17.933Z,8.71
2018-04-10T03:52:18.037Z,8.72
2018-04-10T03:53:18.000Z,8.67
2018-04-10T03:54:17.959Z,8.83
2018-04-10T03:55:17.918Z,8.77
2018-04-10T03:56:17.942Z,8.73
2018-04-10T03:57:17.938Z,8.66
2018-04-10T03:58:17.922Z,8.6
2018-04-10T03:59:18.040Z,8.62
2018-04-10T04:00:17.963Z,8.66
2018-04-10T04:01:17.937Z,8.78
2018-04-10T04:02:17.967Z,8.79
2018-04-10T04:03:17.939Z,8.76
2018-04-10T04:04:17.970Z,8.76
2018-04-10T04:05:17.947Z,8.73
2018-04-10T04:06:17.957Z,8.74
2018-04-10T04:07:17.963Z,8.69
2018-04-10T04:08:17.957Z,8.7
2018-04-10T04:09:17.987Z,8.76
2018-04-10T04:10:17.963Z,8.72
2018-04-10T04:11:17.986Z,8.58
2018-04-10T04:12:17.959Z,8.64
2018-04-10T04:13:17.977Z,8.66
2018-04-10T04:14:17.983Z,8.68
2018-04-10T04:15:17.983Z,8.71
2018-04-10T04:16:17.997Z,8.72
2018-04-10T04:17:17.988Z,8.77
2018-04-10T04:18:18.014Z,8.71
2018-04-10T04:19:18.020Z,8.75
2018-04-10T04:20:18.005Z,8.74
2018-04-10T04:21:17.993Z,8.71
2018-04-10T04:22:18.014Z,8.76
2018-04-10T04:23:18.101Z,8.65
2018-04-10T04:24:18.010Z,8.66
2018-04-10T04:25:18.003Z,8.71
2018-04-10T04:26:18.035Z,8.66
2018-04-10T04:27:18.041Z,8.58
2018-04-10T04:28:18.024Z,8.73
2018-04-10T04:29:18.071Z,8.73
2018-04-10T04:30:18.096Z,8.8
2018-04-10T04:31:18.088Z,8.85
2018-04-10T04:32:18.110Z,8.84
2018-04-10T04:33:18.024Z,8.78
2018-04-10T04:34:18.440Z,8.69
2018-04-10T04:35:18.106Z,8.74
2018-04-10T04:36:18.059Z,8.79
2018-04-10T04:37:18.086Z,8.72
2018-04-10T04:38:18.043Z,8.57
2018-04-10T04:39:18.134Z,8.7
2018-04-10T04:40:18.056Z,8.65
2018-04-10T04:41:18.232Z,8.74
2018-04-10T04:42:18.101Z,8.74
2018-04-10T04:43:18.059Z,8.74
2018-04-10T04:44:18.149Z,8.7
2018-04-10T04:45:18.052Z,8.71
2018-04-10T04:46:18.084Z,8.75
2018-04-10T04:47:18.283Z,8.71
2018-04-10T04:48:18.094Z,8.67
2018-04-10T04:49:18.117Z,8.69
2018-04-10T04:50:18.101Z,8.65
2018-04-10T04:51:18.141Z,8.72
2018-04-10T04:52:18.118Z,8.71
2018-04-10T04:53:18.150Z,8.74
2018-04-10T04:54:18.226Z,8.75
2018-04-10T04:55:18.149Z,8.69
2018-04-10T04:56:18.183Z,8.6
2018-04-10T04:57:18.218Z,8.59
2018-04-10T04:58:18.125Z,8.68
2018-04-10T04:59:18.130Z,8.71
2018-04-10T05:00:18.162Z,8.75
2018-04-10T05:01:18.154Z,8.7
2018-04-10T05:02:18.235Z,8.74
2018-04-10T05:03:18.131Z,8.71
2018-04-10T05:04:18.178Z,8.75
2018-04-10T05:05:18.154Z,8.69
2018-04-10T05:06:18.152Z,8.65
2018-04-10T05:07:18.173Z,8.6
2018-04-10T05:08:18.289Z,8.62
2018-04-10T05:09:18.170Z,8.72
2018-04-10T05:10:18.161Z,8.67
2018-04-10T05:11:18.196Z,8.75
2018-04-10T05:12:18.238Z,8.71
2018-04-10T05:13:18.365Z,8.71
2018-04-10T05:14:18.197Z,8.72
2018-04-10T05:15:18.198Z,8.73
2018-04-10T05:16:18.204Z,8.6
2018-04-10T05:17:18.260Z,8.65
2018-04-10T05:18:18.197Z,8.67
2018-04-10T05:19:18.221Z,8.57
2018-04-10T05:20:18.172Z,8.67
2018-04-10T05:21:18.276Z,8.62
2018-04-10T05:22:18.229Z,8.66
2018-04-10T05:23:18.213Z,8.61
2018-04-10T05:24:18.183Z,8.54
2018-04-10T05:25:18.167Z,8.52
2018-04-10T05:26:18.270Z,8.54
2018-04-10T05:27:18.269Z,8.69
2018-04-10T05:28:18.304Z,8.62
2018-04-10T05:29:18.231Z,8.54
2018-04-10T05:30:18.226Z,8.73
2018-04-10T05:31:18.244Z,8.6
2018-04-10T05:32:18.270Z,8.6
2018-04-10T05:33:18.254Z,8.51
2018-04-10T05:34:18.328Z,8.5
2018-04-10T05:35:18.211Z,8.62
2018-04-10T05:36:18.279Z,8.63
2018-04-10T05:37:18.318Z,8.66
2018-04-10T05:38:18.275Z,8.59
2018-04-10T05:39:18.384Z,8.57
2018-04-10T05:40:18.240Z,8.68
2018-04-10T05:41:18.250Z,8.59
2018-04-10T05:42:18.307Z,8.57
2018-04-10T05:43:18.386Z,8.69
2018-04-10T05:44:18.271Z,8.65
2018-04-10T05:45:18.267Z,8.67
2018-04-10T05:46:18.290Z,8.59
2018-04-10T05:47:18.333Z,8.54
2018-04-10T05:48:18.318Z,8.55
2018-04-10T05:49:18.276Z,8.56
2018-04-10T05:50:18.265Z,8.54
2018-04-10T05:51:18.308Z,8.55
2018-04-10T05:52:18.326Z,8.53
2018-04-10T05:53:18.333Z,8.67
2018-04-10T05:54:18.295Z,8.58
2018-04-10T05:55:18.294Z,8.55
2018-04-10T05:56:18.307Z,8.61
2018-04-10T05:57:18.310Z,8.64
2018-04-10T05:58:18.340Z,8.59
2018-04-10T05:59:18.315Z,8.62
2018-04-10T06:00:18.335Z,8.71
2018-04-10T06:01:18.328Z,8.73
2018-04-10T06:02:18.343Z,8.66
2018-04-10T06:03:18.363Z,8.62
2018-04-10T06:04:18.346Z,8.74
2018-04-10T06:05:18.333Z,8.68
2018-04-10T06:06:18.337Z,8.64
2018-04-10T06:07:18.315Z,8.72
2018-04-10T06:08:18.321Z,8.73
2018-04-10T06:09:18.319Z,8.7
2018-04-10T06:10:18.341Z,8.69
2018-04-10T06:11:18.354Z,8.7
2018-04-10T06:12:18.347Z,8.76
2018-04-10T06:13:18.372Z,8.71
2018-04-10T06:14:18.411Z,8.72
2018-04-10T06:15:18.359Z,8.74
2018-04-10T06:16:18.324Z,8.77
2018-04-10T06:17:18.384Z,8.8
2018-04-10T06:18:18.388Z,8.83
2018-04-10T06:19:18.364Z,8.81
2018-04-10T06:20:18.434Z,8.8
2018-04-10T06:21:18.417Z,8.76
2018-04-10T06:22:18.368Z,8.79
2018-04-10T06:23:18.390Z,8.87
2018-04-10T06:24:18.416Z,8.83
2018-04-10T06:25:18.424Z,8.86
2018-04-10T06:26:18.402Z,8.85
2018-04-10T06:27:18.396Z,8.77
2018-04-10T06:28:18.398Z,8.75
2018-04-10T06:29:18.497Z,8.88
2018-04-10T06:30:18.472Z,8.87
2018-04-10T06:31:18.384Z,8.83
2018-04-10T06:32:18.406Z,8.81
2018-04-10T06:33:18.425Z,8.79
2018-04-10T06:34:18.425Z,8.8
2018-04-10T06:35:18.410Z,8.81
2018-04-10T06:36:18.378Z,8.83
2018-04-10T06:37:18.902Z,8.9
2018-04-10T06:38:18.456Z,8.88
2018-04-10T06:39:18.410Z,8.88
2018-04-10T06:40:18.537Z,8.83
2018-04-10T06:41:18.458Z,8.79
2018-04-10T06:42:18.439Z,8.82
2018-04-10T06:43:18.530Z,8.84
2018-04-10T06:44:18.516Z,8.82
2018-04-10T06:45:18.478Z,8.76
2018-04-10T06:46:18.504Z,8.8
2018-04-10T06:47:18.438Z,8.74
2018-04-10T06:48:18.446Z,8.81
2018-04-10T06:49:18.547Z,8.9
2018-04-10T06:50:18.545Z,8.97
2018-04-10T06:51:18.472Z,8.99
2018-04-10T06:52:18.465Z,8.98
2018-04-10T06:53:18.527Z,9.04
2018-04-10T06:54:18.481Z,9
2018-04-10T06:55:18.484Z,9.06
2018-04-10T06:56:18.585Z,9
2018-04-10T06:57:18.491Z,8.96
2018-04-10T06:58:18.511Z,8.94
2018-04-10T06:59:18.474Z,8.97
2018-04-10T07:00:18.487Z,9
2018-04-10T07:01:18.477Z,9
2018-04-10T07:02:18.598Z,8.94
2018-04-10T07:03:18.532Z,9
2018-04-10T07:04:18.490Z,9.13
2018-04-10T07:05:18.565Z,9.1
2018-04-10T07:06:18.520Z,9.14
2018-04-10T07:07:18.515Z,9.08
2018-04-10T07:08:18.496Z,9.18
2018-04-10T07:09:18.542Z,9.18
2018-04-10T07:10:18.559Z,9.15
2018-04-10T07:11:18.502Z,9.14
2018-04-10T07:12:18.536Z,9.08
2018-04-10T07:13:18.764Z,9.14
2018-04-10T07:14:18.575Z,9.13
2018-04-10T07:15:18.543Z,9.16
2018-04-10T07:16:18.511Z,9.14
2018-04-10T07:17:18.526Z,9.07
2018-04-10T07:18:18.540Z,9.22
2018-04-10T07:19:18.561Z,9.14
2018-04-10T07:20:18.555Z,9.07
2018-04-10T07:21:18.614Z,9.07
2018-04-10T07:22:18.580Z,9.17
2018-04-10T07:23:18.600Z,9.18
2018-04-10T07:24:18.557Z,9.17
2018-04-10T07:25:18.569Z,9.23
2018-04-10T07:26:18.569Z,9.18
2018-04-10T07:27:18.556Z,9.16
2018-04-10T07:28:18.613Z,9.27
2018-04-10T07:29:18.574Z,9.29
2018-04-10T07:30:18.598Z,9.24
2018-04-10T07:31:18.592Z,9.29
2018-04-10T07:32:18.678Z,9.24
2018-04-10T07:33:18.589Z,9.25
2018-04-10T07:34:18.602Z,9.26
2018-04-10T07:35:18.603Z,9.23
2018-04-10T07:36:18.598Z,9.26
2018-04-10T07:37:18.610Z,9.22
2018-04-10T07:38:18.647Z,9.26
2018-04-10T07:39:18.581Z,9.2
2018-04-10T07:40:18.656Z,9.27
2018-04-10T07:41:18.660Z,9.26
2018-04-10T07:42:18.637Z,9.26
2018-04-10T07:43:18.625Z,9.1
2018-04-10T07:44:18.603Z,9.08
2018-04-10T07:45:18.775Z,9.06
2018-04-10T07:46:18.686Z,9.14
2018-04-10T07:47:18.662Z,9.13
2018-04-10T07:48:18.610Z,9.19
2018-04-10T07:49:18.622Z,9.19
2018-04-10T07:50:18.706Z,9.23
2018-04-10T07:51:18.640Z,9.24
2018-04-10T07:52:18.698Z,9.25
2018-04-10T07:53:18.650Z,9.23
2018-04-10T07:54:18.659Z,9.15
2018-04-10T07:55:18.646Z,9.16
2018-04-10T07:56:18.674Z,8.99
2018-04-10T07:57:18.682Z,9.03
2018-04-10T07:58:18.688Z,9.06
2018-04-10T07:59:18.701Z,9.06
2018-04-10T08:00:18.698Z,9.07
2018-04-10T08:01:18.847Z,9.1
2018-04-10T08:02:18.656Z,9.1
2018-04-10T08:03:18.990Z,9.11
2018-04-10T08:04:18.788Z,9.08
2018-04-10T08:05:18.745Z,9.08
2018-04-10T08:06:18.687Z,9.1
2018-04-10T08:07:18.858Z,9.06
2018-04-10T08:08:18.692Z,9.06
2018-04-10T08:09:18.746Z,9.07
2018-04-10T08:10:18.698Z,9.08
2018-04-10T08:11:18.749Z,9.03
2018-04-10T08:12:18.690Z,9.08
2018-04-10T08:13:18.716Z,9.1
2018-04-10T08:14:18.696Z,9.15
2018-04-10T08:15:18.701Z,9.1
2018-04-10T08:16:18.743Z,9.1
2018-04-10T08:17:18.703Z,9.13
2018-04-10T08:18:18.711Z,9.14
2018-04-10T08:19:18.718Z,9.17
2018-04-10T08:20:18.705Z,9.09
2018-04-10T08:21:18.728Z,9.1
2018-04-10T08:22:18.961Z,9.13
2018-04-10T08:23:18.745Z,9.12
2018-04-10T08:24:18.744Z,9.08
2018-04-10T08:25:18.726Z,9.12
2018-04-10T08:26:18.777Z,9.17
2018-04-10T08:27:18.745Z,9.17
2018-04-10T08:28:18.732Z,9.17
2018-04-10T08:29:18.783Z,9.14
2018-04-10T08:30:18.771Z,9.23
2018-04-10T08:31:18.780Z,9.15
2018-04-10T08:32:18.763Z,9.13
2018-04-10T08:33:18.779Z,9.12
2018-04-10T08:34:18.779Z,8.97
2018-04-10T08:35:18.772Z,9.02
2018-04-10T08:36:18.946Z,9.11
2018-04-10T08:37:18.787Z,9.1
2018-04-10T08:38:18.833Z,9.1
2018-04-10T08:39:18.864Z,9.11
2018-04-10T08:40:18.781Z,9.11
2018-04-10T08:41:18.849Z,9.16
2018-04-10T08:42:18.772Z,9.15
2018-04-10T08:43:18.799Z,9.15
2018-04-10T08:44:18.805Z,9.19
2018-04-10T08:45:18.793Z,9.23
2018-04-10T08:46:18.795Z,9.14
2018-04-10T08:47:18.811Z,9.02
2018-04-10T08:48:18.796Z,9.05
2018-04-10T08:49:18.802Z,8.93
2018-04-10T08:50:18.926Z,9.05
2018-04-10T08:51:18.808Z,9.13
2018-04-10T08:52:23.824Z,9
2018-04-10T08:53:22.568Z,9.09
2018-04-10T08:54:25.145Z,9.07
2018-04-10T08:55:24.524Z,8.9
2018-04-10T08:56:18.871Z,8.87
2018-04-10T08:57:18.844Z,8.91
2018-04-10T08:58:18.840Z,8.97
2018-04-10T08:59:18.858Z,9.04
2018-04-10T09:00:18.871Z,8.87
2018-04-10T09:01:18.895Z,8.83
2018-04-10T09:02:18.875Z,8.83
2018-04-10T09:03:18.889Z,8.94
2018-04-10T09:04:18.873Z,9.01
2018-04-10T09:05:18.937Z,8.97
2018-04-10T09:06:18.855Z,8.88
2018-04-10T09:07:18.894Z,9.02
2018-04-10T09:08:18.866Z,9.06
2018-04-10T09:09:19.325Z,9.1
2018-04-10T09:10:18.903Z,9.12
2018-04-10T09:11:18.865Z,9.12
2018-04-10T09:12:18.977Z,9.12
2018-04-10T09:13:18.903Z,9.17
2018-04-10T09:14:18.891Z,9.16
2018-04-10T09:15:18.937Z,9.17
2018-04-10T09:16:19.139Z,9.21
2018-04-10T09:17:18.925Z,9.19
2018-04-10T09:18:18.918Z,9.11
2018-04-10T09:19:18.906Z,9.05
2018-04-10T09:20:18.916Z,9.08
2018-04-10T09:21:18.913Z,9.07
2018-04-10T09:22:19.159Z,9.06
2018-04-10T09:23:18.946Z,9.08
2018-04-10T09:24:18.925Z,9.14
2018-04-10T09:25:18.918Z,9.08
2018-04-10T09:26:18.938Z,9.07
2018-04-10T09:27:19.018Z,9.13
2018-04-10T09:28:18.928Z,9.12
2018-04-10T09:29:18.931Z,9.2
2018-04-10T09:30:18.974Z,9.2
2018-04-10T09:31:18.934Z,9.18
2018-04-10T09:32:18.967Z,9.06
2018-04-10T09:33:18.941Z,9.1
2018-04-10T09:34:18.983Z,9.13
2018-04-10T09:35:18.998Z,9.12
2018-04-10T09:36:18.982Z,9.18
2018-04-10T09:37:18.970Z,9.19
2018-04-10T09:38:19.069Z,9.22
2018-04-10T09:39:18.956Z,9.3
2018-04-10T09:40:18.971Z,9.24
2018-04-10T09:41:19.001Z,9.21
2018-04-10T09:42:18.988Z,9.21
2018-04-10T09:43:19.319Z,9.23
2018-04-10T09:44:19.007Z,9.26
2018-04-10T09:45:19.034Z,9.24
2018-04-10T09:46:19.113Z,9.35
2018-04-10T09:47:19.093Z,9.4
2018-04-10T09:48:19.136Z,9.2
2018-04-10T09:49:19.014Z,9.16
2018-04-10T09:50:19.012Z,9.18
2018-04-10T09:51:19.092Z,9.02
2018-04-10T09:52:19.009Z,9.05
2018-04-10T09:53:19.012Z,9.13
2018-04-10T09:54:19.016Z,9.14
2018-04-10T09:55:19.020Z,9.2
2018-04-10T09:56:19.181Z,9.16
2018-04-10T09:57:19.010Z,9.13
2018-04-10T09:58:19.031Z,9.25
2018-04-10T09:59:19.016Z,9.28
2018-04-10T10:00:19.040Z,9.3
2018-04-10T10:01:19.155Z,9.27
2018-04-10T10:02:19.062Z,9.17
2018-04-10T10:03:19.161Z,9.19
2018-04-10T10:04:19.081Z,9.23
2018-04-10T10:05:19.058Z,9.3
2018-04-10T10:06:19.117Z,9.34
2018-04-10T10:07:19.011Z,9.19
2018-04-10T10:08:19.054Z,9.3
2018-04-10T10:09:19.033Z,9.31
2018-04-10T10:10:19.045Z,9.19
2018-04-10T10:11:19.120Z,9.34
2018-04-10T10:12:19.057Z,9.27
2018-04-10T10:13:19.124Z,9.27
2018-04-10T10:14:19.120Z,9.19
2018-04-10T10:15:19.125Z,9.29
2018-04-10T10:16:19.090Z,9.3
2018-04-10T10:17:19.098Z,9.28
2018-04-10T10:18:19.211Z,9.27
2018-04-10T10:19:19.093Z,9.38
2018-04-10T10:20:19.077Z,9.23
2018-04-10T10:21:19.092Z,9.04
2018-04-10T10:22:19.116Z,8.86
2018-04-10T10:23:19.117Z,8.98
2018-04-10T10:24:19.119Z,9.15
2018-04-10T10:25:19.151Z,9.16
2018-04-10T10:26:19.102Z,9.17
2018-04-10T10:27:19.105Z,9.13
2018-04-10T10:28:19.154Z,9.25
2018-04-10T10:29:19.119Z,9.15
2018-04-10T10:30:19.104Z,9.16
2018-04-10T10:31:19.155Z,9.23
2018-04-10T10:32:19.128Z,8.9
2018-04-10T10:33:19.161Z,8.93
2018-04-10T10:34:19.132Z,8.91
2018-04-10T10:35:19.159Z,8.86
2018-04-10T10:36:19.127Z,8.79
2018-04-10T10:37:19.154Z,8.99
2018-04-10T10:38:19.172Z,8.89
2018-04-10T10:39:19.161Z,8.95
2018-04-10T10:40:19.183Z,8.89
2018-04-10T10:41:19.409Z,8.82
2018-04-10T10:42:19.159Z,8.99
2018-04-10T10:43:19.179Z,8.89
2018-04-10T10:44:19.158Z,8.91
2018-04-10T10:45:19.188Z,8.95
2018-04-10T10:46:19.220Z,8.87
2018-04-10T10:47:19.165Z,8.98
2018-04-10T10:48:19.188Z,8.82
2018-04-10T10:49:19.182Z,8.65
2018-04-10T10:50:19.191Z,8.62
2018-04-10T10:51:19.192Z,8.63
2018-04-10T10:52:19.303Z,8.75
2018-04-10T10:53:19.219Z,8.62
2018-04-10T10:54:19.213Z,8.4
2018-04-10T10:55:19.205Z,8.57
2018-04-10T10:56:19.204Z,8.56
2018-04-10T10:57:19.248Z,8.57
2018-04-10T10:58:19.237Z,8.46
2018-04-10T10:59:19.232Z,8.26
2018-04-10T11:00:19.259Z,8.09
2018-04-10T11:01:19.251Z,8.01
2018-04-10T11:02:19.206Z,7.92
2018-04-10T11:03:19.231Z,8.19
2018-04-10T11:04:19.213Z,8.33
2018-04-10T11:05:19.256Z,8.45
2018-04-10T11:06:19.252Z,8.41
2018-04-10T11:07:19.275Z,8.37
2018-04-10T11:08:19.219Z,8.55
2018-04-10T11:09:19.304Z,8.4
2018-04-10T11:10:19.300Z,8.44
2018-04-10T11:11:19.368Z,8.63
2018-04-10T11:12:19.310Z,8.4
2018-04-10T11:13:19.233Z,8.4
2018-04-10T11:14:19.296Z,8.6
2018-04-10T11:15:19.290Z,8.27
2018-04-10T11:16:19.278Z,8.23
2018-04-10T11:17:19.286Z,8.43
2018-04-10T11:18:19.309Z,8.53
2018-04-10T11:19:19.286Z,8.57
2018-04-10T11:20:19.286Z,8.73
2018-04-10T11:21:19.288Z,8.54
2018-04-10T11:22:19.257Z,8.5
2018-04-10T11:23:19.264Z,8.56
2018-04-10T11:24:19.286Z,8.67
2018-04-10T11:25:19.323Z,8.58
2018-04-10T11:26:19.281Z,8.81
2018-04-10T11:27:19.353Z,8.71
2018-04-10T11:28:19.296Z,8.7
2018-04-10T11:29:19.302Z,8.49
2018-04-10T11:30:19.299Z,8.52
2018-04-10T11:31:19.313Z,8.6
2018-04-10T11:32:19.299Z,8.52
2018-04-10T11:33:19.310Z,8.6
2018-04-10T11:34:19.316Z,8.48
2018-04-10T11:35:19.328Z,8.48
2018-04-10T11:36:19.313Z,8.56
2018-04-10T11:37:19.312Z,8.78
2018-04-10T11:38:19.333Z,8.76
2018-04-10T11:39:19.318Z,8.6
2018-04-10T11:40:19.362Z,8.46
2018-04-10T11:41:19.370Z,8.57
2018-04-10T11:42:19.336Z,8.67
2018-04-10T11:43:19.346Z,8.57
2018-04-10T11:44:19.349Z,8.34
2018-04-10T11:45:19.336Z,8.47
2018-04-10T11:46:19.373Z,8.53
2018-04-10T11:47:19.380Z,8.67
2018-04-10T11:48:19.395Z,8.52
2018-04-10T11:49:19.386Z,8.59
2018-04-10T11:50:19.486Z,8.51
2018-04-10T11:51:19.515Z,8.58
2018-04-10T11:52:19.379Z,8.55
2018-04-10T11:53:19.412Z,8.46
2018-04-10T11:54:19.389Z,8.55
2018-04-10T11:55:19.390Z,8.38
2018-04-10T11:56:19.425Z,8.36
2018-04-10T11:57:19.393Z,8.47
2018-04-10T11:58:19.393Z,8.48
2018-04-10T11:59:19.781Z,8.2
2018-04-10T12:00:19.454Z,8.11
2018-04-10T12:01:19.414Z,8.1
2018-04-10T12:02:19.509Z,8.18
2018-04-10T12:03:19.575Z,8.23
2018-04-10T12:04:19.428Z,8.23
2018-04-10T12:05:19.411Z,8.2
2018-04-10T12:06:19.386Z,8.23
2018-04-10T12:07:19.409Z,8.25
2018-04-10T12:08:19.435Z,8.23
2018-04-10T12:09:19.444Z,8.23
2018-04-10T12:10:19.427Z,8.23
2018-04-10T12:11:19.433Z,8.38
2018-04-10T12:12:19.441Z,8.41
2018-04-10T12:13:19.457Z,8.38
2018-04-10T12:14:19.449Z,8.33
2018-04-10T12:15:19.425Z,8.47
2018-04-10T12:16:19.432Z,8.47
2018-04-10T12:17:19.437Z,8.48
2018-04-10T12:18:19.438Z,8.45
2018-04-10T12:19:19.577Z,8.5
2018-04-10T12:20:19.435Z,8.55
2018-04-10T12:21:19.574Z,8.61
2018-04-10T12:22:19.429Z,8.59
2018-04-10T12:23:19.503Z,8.59
2018-04-10T12:24:19.673Z,8.57
2018-04-10T12:25:19.446Z,8.57
2018-04-10T12:26:19.448Z,8.59
2018-04-10T12:27:19.481Z,8.64
2018-04-10T12:28:19.482Z,8.5
2018-04-10T12:29:19.514Z,8.47
2018-04-10T12:30:19.507Z,8.64
2018-04-10T12:31:19.508Z,8.6
2018-04-10T12:32:19.461Z,8.59
2018-04-10T12:33:19.514Z,8.75
2018-04-10T12:34:19.493Z,8.59
2018-04-10T12:35:19.484Z,8.46
2018-04-10T12:36:19.583Z,8.45
2018-04-10T12:37:19.504Z,8.48
2018-04-10T12:38:19.546Z,8.36
2018-04-10T12:39:19.567Z,8.43
2018-04-10T12:40:19.497Z,8.46
2018-04-10T12:41:19.533Z,8.48
2018-04-10T12:42:19.518Z,8.47
2018-04-10T12:43:19.502Z,8.54
2018-04-10T12:44:19.556Z,8.45
2018-04-10T12:45:19.544Z,8.46
2018-04-10T12:46:19.551Z,8.36
2018-04-10T12:47:19.552Z,8.36
2018-04-10T12:48:19.527Z,8.44
2018-04-10T12:49:19.560Z,8.4
2018-04-10T12:50:19.567Z,8.44
2018-04-10T12:51:19.633Z,8.43
2018-04-10T12:52:19.663Z,8.37
2018-04-10T12:53:19.669Z,8.48
2018-04-10T12:54:19.571Z,8.59
2018-04-10T12:55:19.558Z,8.43
2018-04-10T12:56:19.630Z,8.47
2018-04-10T12:57:19.575Z,8.42
2018-04-10T12:58:19.666Z,8.49
2018-04-10T12:59:19.624Z,8.55
2018-04-10T13:00:19.585Z,8.43
2018-04-10T13:01:19.623Z,8.54
2018-04-10T13:02:19.815Z,8.46
2018-04-10T13:03:19.592Z,8.54
2018-04-10T13:04:19.596Z,8.45
2018-04-10T13:05:19.603Z,8.38
2018-04-10T13:06:19.598Z,8.41
2018-04-10T13:07:19.730Z,8.42
2018-04-10T13:08:19.608Z,8.37
2018-04-10T13:09:19.655Z,8.38
2018-04-10T13:10:19.622Z,8.41
2018-04-10T13:11:19.629Z,8.46
2018-04-10T13:12:19.640Z,8.32
2018-04-10T13:13:19.589Z,8.39
2018-04-10T13:14:19.641Z,8.42
2018-04-10T13:15:19.647Z,8.44
2018-04-10T13:16:19.628Z,8.38
2018-04-10T13:17:19.668Z,8.36
2018-04-10T13:18:19.604Z,8.46
2018-04-10T13:19:19.644Z,8.46
2018-04-10T13:20:19.651Z,8.45
2018-04-10T13:21:19.648Z,8.48